Manderfield, Utah
Current Conditions -  °F | °C
As of 9:52 PM on Friday 19 Dec 2014 (Local Time) from KMLF Reporting Station
Overcast Overcast  
Wind Chill: 29°   Ceiling: 7500
Heat Index: 37°   Visibility: 10mi
Dew Point: 28°   Wind: 13mph
Humidity: 70%   Direction: 210°SSW
Pressure: 30.15"   Gusts: NA
Location:  38.344°N, 112.579°W
Report Text: KMLF 200452Z AUTO 21011KT 10SM FEW055 BKN075 OVC100 03/M02 A3015 RMK AO2 SLP214 T00281022 TSNO
Loading
Personal Weather Stations






























Interactive Weather Map New forecast layout! Learn more

10-Day Weather Forecast

Advertisements
Track Severe Weather on mobile